sensor_id;sensor_type;location;lat;lon;timestamp;P1;durP1;ratioP1;P2;durP2;ratioP2
6955;SDS011;50345;51.136;16.886;2024-03-29T00:00:40;2.67;;;2.08;;
6955;SDS011;50345;51.136;16.886;2024-03-29T00:03:06;1.70;;;1.60;;
6955;SDS011;50345;51.136;16.886;2024-03-29T00:05:33;3.38;;;2.50;;
6955;SDS011;50345;51.136;16.886;2024-03-29T00:07:59;2.30;;;2.00;;
6955;SDS011;50345;51.136;16.886;2024-03-29T00:10:24;5.00;;;2.20;;
6955;SDS011;50345;51.136;16.886;2024-03-29T00:12:50;4.33;;;2.23;;
6955;SDS011;50345;51.136;16.886;2024-03-29T00:15:15;2.70;;;2.43;;
6955;SDS011;50345;51.136;16.886;2024-03-29T00:17:41;2.60;;;2.40;;
6955;SDS011;50345;51.136;16.886;2024-03-29T00:20:07;2.87;;;2.23;;
6955;SDS011;50345;51.136;16.886;2024-03-29T00:22:33;2.92;;;2.60;;
6955;SDS011;50345;51.136;16.886;2024-03-29T00:24:59;2.50;;;2.30;;
6955;SDS011;50345;51.136;16.886;2024-03-29T00:27:24;4.00;;;2.50;;
6955;SDS011;50345;51.136;16.886;2024-03-29T00:29:52;5.93;;;3.00;;
6955;SDS011;50345;51.136;16.886;2024-03-29T00:32:18;4.28;;;2.83;;
6955;SDS011;50345;51.136;16.886;2024-03-29T00:34:44;4.20;;;3.30;;
6955;SDS011;50345;51.136;16.886;2024-03-29T00:37:10;6.82;;;2.20;;
6955;SDS011;50345;51.136;16.886;2024-03-29T00:39:36;3.58;;;2.92;;
6955;SDS011;50345;51.136;16.886;2024-03-29T00:42:02;2.40;;;2.20;;
6955;SDS011;50345;51.136;16.886;2024-03-29T00:44:29;3.60;;;1.58;;
6955;SDS011;50345;51.136;16.886;2024-03-29T00:46:55;2.20;;;2.00;;
6955;SDS011;50345;51.136;16.886;2024-03-29T00:49:20;4.23;;;2.20;;
6955;SDS011;50345;51.136;16.886;2024-03-29T00:51:46;3.17;;;2.10;;
6955;SDS011;50345;51.136;16.886;2024-03-29T00:54:11;2.13;;;1.80;;
6955;SDS011;50345;51.136;16.886;2024-03-29T00:56:37;2.30;;;1.70;;
6955;SDS011;50345;51.136;16.886;2024-03-29T00:59:02;2.77;;;1.60;;
6955;SDS011;50345;51.136;16.886;2024-03-29T01:01:28;2.03;;;1.80;;
6955;SDS011;50345;51.136;16.886;2024-03-29T01:03:53;2.10;;;1.90;;
6955;SDS011;50345;51.136;16.886;2024-03-29T01:06:19;3.30;;;1.60;;
6955;SDS011;50345;51.136;16.886;2024-03-29T01:08:45;2.37;;;2.17;;
6955;SDS011;50345;51.136;16.886;2024-03-29T01:11:10;2.33;;;2.10;;
6955;SDS011;50345;51.136;16.886;2024-03-29T01:13:36;4.60;;;2.03;;
6955;SDS011;50345;51.136;16.886;2024-03-29T01:16:01;2.97;;;2.60;;
6955;SDS011;50345;51.136;16.886;2024-03-29T01:18:27;2.73;;;2.53;;
6955;SDS011;50345;51.136;16.886;2024-03-29T01:20:53;2.97;;;2.40;;
6955;SDS011;50345;51.136;16.886;2024-03-29T01:23:18;2.33;;;2.00;;
6955;SDS011;50345;51.136;16.886;2024-03-29T01:25:44;3.00;;;2.80;;
6955;SDS011;50345;51.136;16.886;2024-03-29T01:28:10;3.13;;;2.63;;
6955;SDS011;50345;51.136;16.886;2024-03-29T01:30:35;3.17;;;2.97;;
6955;SDS011;50345;51.136;16.886;2024-03-29T01:33:01;2.97;;;2.30;;
6955;SDS011;50345;51.136;16.886;2024-03-29T01:35:26;1.97;;;1.80;;
6955;SDS011;50345;51.136;16.886;2024-03-29T01:37:52;1.67;;;1.57;;
6955;SDS011;50345;51.136;16.886;2024-03-29T01:40:17;2.90;;;2.10;;
6955;SDS011;50345;51.136;16.886;2024-03-29T01:42:43;1.80;;;1.70;;
6955;SDS011;50345;51.136;16.886;2024-03-29T01:45:08;2.40;;;2.20;;
6955;SDS011;50345;51.136;16.886;2024-03-29T01:47:34;1.77;;;1.67;;
6955;SDS011;50345;51.136;16.886;2024-03-29T01:50:00;2.40;;;2.20;;
6955;SDS011;50345;51.136;16.886;2024-03-29T01:52:26;2.27;;;2.07;;
6955;SDS011;50345;51.136;16.886;2024-03-29T01:54:54;1.98;;;1.88;;
6955;SDS011;50345;51.136;16.886;2024-03-29T01:57:19;2.00;;;1.90;;
6955;SDS011;50345;51.136;16.886;2024-03-29T01:59:46;2.42;;;2.22;;
6955;SDS011;50345;51.136;16.886;2024-03-29T02:02:12;2.22;;;2.13;;
6955;SDS011;50345;51.136;16.886;2024-03-29T02:04:38;2.20;;;2.00;;
6955;SDS011;50345;51.136;16.886;2024-03-29T02:07:05;2.22;;;2.03;;
6955;SDS011;50345;51.136;16.886;2024-03-29T02:09:30;2.10;;;2.00;;
6955;SDS011;50345;51.136;16.886;2024-03-29T02:11:56;2.50;;;2.30;;
6955;SDS011;50345;51.136;16.886;2024-03-29T02:14:22;4.23;;;1.83;;
6955;SDS011;50345;51.136;16.886;2024-03-29T02:16:47;2.57;;;2.37;;
6955;SDS011;50345;51.136;16.886;2024-03-29T02:19:13;2.07;;;1.97;;
6955;SDS011;50345;51.136;16.886;2024-03-29T02:21:41;2.13;;;2.00;;
6955;SDS011;50345;51.136;16.886;2024-03-29T02:24:10;1.90;;;1.80;;
6955;SDS011;50345;51.136;16.886;2024-03-29T02:26:37;2.55;;;2.35;;
6955;SDS011;50345;51.136;16.886;2024-03-29T02:29:06;2.35;;;2.15;;
6955;SDS011;50345;51.136;16.886;2024-03-29T02:31:32;2.87;;;2.67;;
6955;SDS011;50345;51.136;16.886;2024-03-29T02:33:58;2.40;;;2.13;;
6955;SDS011;50345;51.136;16.886;2024-03-29T02:36:23;1.90;;;1.80;;
6955;SDS011;50345;51.136;16.886;2024-03-29T02:38:49;2.93;;;2.60;;
6955;SDS011;50345;51.136;16.886;2024-03-29T02:41:14;3.37;;;2.57;;
6955;SDS011;50345;51.136;16.886;2024-03-29T02:43:40;2.30;;;2.10;;
6955;SDS011;50345;51.136;16.886;2024-03-29T02:46:06;2.30;;;2.10;;
6955;SDS011;50345;51.136;16.886;2024-03-29T02:48:31;4.60;;;2.50;;
6955;SDS011;50345;51.136;16.886;2024-03-29T02:50:57;2.70;;;2.50;;
6955;SDS011;50345;51.136;16.886;2024-03-29T02:53:22;2.37;;;2.23;;
6955;SDS011;50345;51.136;16.886;2024-03-29T02:55:49;2.95;;;2.40;;
6955;SDS011;50345;51.136;16.886;2024-03-29T02:58:15;3.00;;;2.63;;
6955;SDS011;50345;51.136;16.886;2024-03-29T03:00:40;2.40;;;2.20;;
6955;SDS011;50345;51.136;16.886;2024-03-29T03:03:06;2.60;;;2.40;;
6955;SDS011;50345;51.136;16.886;2024-03-29T03:05:31;2.67;;;2.07;;
6955;SDS011;50345;51.136;16.886;2024-03-29T03:07:57;2.38;;;2.17;;
6955;SDS011;50345;51.136;16.886;2024-03-29T03:10:45;2.85;;;2.33;;
6955;SDS011;50345;51.136;16.886;2024-03-29T03:13:21;2.35;;;2.25;;
6955;SDS011;50345;51.136;16.886;2024-03-29T03:15:46;2.93;;;2.67;;
6955;SDS011;50345;51.136;16.886;2024-03-29T03:18:12;2.20;;;2.10;;
6955;SDS011;50345;51.136;16.886;2024-03-29T03:20:37;2.10;;;1.83;;
6955;SDS011;50345;51.136;16.886;2024-03-29T03:23:03;2.67;;;2.20;;
6955;SDS011;50345;51.136;16.886;2024-03-29T03:25:29;2.00;;;1.87;;
6955;SDS011;50345;51.136;16.886;2024-03-29T03:27:54;2.43;;;1.97;;
6955;SDS011;50345;51.136;16.886;2024-03-29T03:30:20;2.90;;;2.57;;
6955;SDS011;50345;51.136;16.886;2024-03-29T03:32:47;2.22;;;1.92;;
6955;SDS011;50345;51.136;16.886;2024-03-29T03:35:12;2.13;;;2.03;;
6955;SDS011;50345;51.136;16.886;2024-03-29T03:37:38;2.50;;;2.20;;
6955;SDS011;50345;51.136;16.886;2024-03-29T03:40:04;2.47;;;2.23;;
6955;SDS011;50345;51.136;16.886;2024-03-29T03:42:31;3.35;;;2.47;;
6955;SDS011;50345;51.136;16.886;2024-03-29T03:44:57;2.80;;;2.60;;
6955;SDS011;50345;51.136;16.886;2024-03-29T03:47:22;2.53;;;2.23;;
6955;SDS011;50345;51.136;16.886;2024-03-29T03:49:48;3.23;;;2.47;;
6955;SDS011;50345;51.136;16.886;2024-03-29T03:52:14;2.87;;;2.67;;
6955;SDS011;50345;51.136;16.886;2024-03-29T03:54:39;2.70;;;2.23;;
6955;SDS011;50345;51.136;16.886;2024-03-29T03:57:05;2.43;;;1.83;;
6955;SDS011;50345;51.136;16.886;2024-03-29T03:59:30;1.90;;;1.80;;
6955;SDS011;50345;51.136;16.886;2024-03-29T04:01:56;2.20;;;1.70;;
6955;SDS011;50345;51.136;16.886;2024-03-29T04:04:22;2.73;;;1.97;;
6955;SDS011;50345;51.136;16.886;2024-03-29T04:06:47;2.27;;;1.90;;
6955;SDS011;50345;51.136;16.886;2024-03-29T04:09:16;2.70;;;1.90;;
6955;SDS011;50345;51.136;16.886;2024-03-29T04:11:42;1.90;;;1.55;;
6955;SDS011;50345;51.136;16.886;2024-03-29T04:14:08;3.70;;;2.15;;
6955;SDS011;50345;51.136;16.886;2024-03-29T04:16:33;2.63;;;1.80;;
6955;SDS011;50345;51.136;16.886;2024-03-29T04:18:59;2.33;;;1.90;;
6955;SDS011;50345;51.136;16.886;2024-03-29T04:21:24;2.17;;;2.07;;
6955;SDS011;50345;51.136;16.886;2024-03-29T04:23:50;1.60;;;1.50;;
6955;SDS011;50345;51.136;16.886;2024-03-29T04:26:15;2.20;;;2.00;;
6955;SDS011;50345;51.136;16.886;2024-03-29T04:28:41;4.33;;;2.33;;
6955;SDS011;50345;51.136;16.886;2024-03-29T04:31:07;2.40;;;1.93;;
6955;SDS011;50345;51.136;16.886;2024-03-29T04:33:32;3.23;;;1.77;;
6955;SDS011;50345;51.136;16.886;2024-03-29T04:36:04;1.67;;;1.57;;
6955;SDS011;50345;51.136;16.886;2024-03-29T04:38:30;2.85;;;1.92;;
6955;SDS011;50345;51.136;16.886;2024-03-29T04:40:56;2.38;;;1.83;;
6955;SDS011;50345;51.136;16.886;2024-03-29T04:43:24;1.70;;;1.60;;
6955;SDS011;50345;51.136;16.886;2024-03-29T04:45:50;2.33;;;1.92;;
6955;SDS011;50345;51.136;16.886;2024-03-29T04:48:38;3.83;;;2.25;;
6955;SDS011;50345;51.136;16.886;2024-03-29T04:51:08;2.35;;;2.15;;
6955;SDS011;50345;51.136;16.886;2024-03-29T04:53:37;2.60;;;2.17;;
6955;SDS011;50345;51.136;16.886;2024-03-29T04:56:04;2.33;;;2.03;;
6955;SDS011;50345;51.136;16.886;2024-03-29T04:58:31;1.70;;;1.60;;
6955;SDS011;50345;51.136;16.886;2024-03-29T05:00:57;1.77;;;1.67;;
6955;SDS011;50345;51.136;16.886;2024-03-29T05:03:22;2.37;;;1.87;;
6955;SDS011;50345;51.136;16.886;2024-03-29T05:05:51;2.85;;;1.98;;
6955;SDS011;50345;51.136;16.886;2024-03-29T05:08:18;2.17;;;1.73;;
6955;SDS011;50345;51.136;16.886;2024-03-29T05:10:44;1.20;;;1.10;;
6955;SDS011;50345;51.136;16.886;2024-03-29T05:13:10;1.40;;;1.20;;
6955;SDS011;50345;51.136;16.886;2024-03-29T05:15:36;2.23;;;1.97;;
6955;SDS011;50345;51.136;16.886;2024-03-29T05:18:02;2.60;;;1.47;;
6955;SDS011;50345;51.136;16.886;2024-03-29T05:20:28;3.28;;;1.73;;
6955;SDS011;50345;51.136;16.886;2024-03-29T05:22:54;2.60;;;1.70;;
6955;SDS011;50345;51.136;16.886;2024-03-29T05:25:19;1.30;;;1.20;;
6955;SDS011;50345;51.136;16.886;2024-03-29T05:27:45;1.30;;;1.20;;
6955;SDS011;50345;51.136;16.886;2024-03-29T05:30:10;2.73;;;1.93;;
6955;SDS011;50345;51.136;16.886;2024-03-29T05:32:38;4.85;;;4.30;;
6955;SDS011;50345;51.136;16.886;2024-03-29T05:35:04;5.75;;;3.30;;
6955;SDS011;50345;51.136;16.886;2024-03-29T05:37:30;2.70;;;2.07;;
6955;SDS011;50345;51.136;16.886;2024-03-29T05:39:55;3.47;;;1.97;;
6955;SDS011;50345;51.136;16.886;2024-03-29T05:42:28;1.65;;;1.55;;
6955;SDS011;50345;51.136;16.886;2024-03-29T05:44:55;2.35;;;1.48;;
6955;SDS011;50345;51.136;16.886;2024-03-29T05:47:21;1.37;;;1.27;;
6955;SDS011;50345;51.136;16.886;2024-03-29T05:49:47;1.37;;;1.27;;
6955;SDS011;50345;51.136;16.886;2024-03-29T05:52:13;1.50;;;1.17;;
6955;SDS011;50345;51.136;16.886;2024-03-29T05:54:39;1.20;;;1.10;;
6955;SDS011;50345;51.136;16.886;2024-03-29T05:57:08;4.47;;;1.20;;
6955;SDS011;50345;51.136;16.886;2024-03-29T05:59:35;2.87;;;1.67;;
6955;SDS011;50345;51.136;16.886;2024-03-29T06:02:00;3.37;;;2.07;;
6955;SDS011;50345;51.136;16.886;2024-03-29T06:04:26;2.13;;;1.33;;
6955;SDS011;50345;51.136;16.886;2024-03-29T06:07:01;1.70;;;1.60;;
6955;SDS011;50345;51.136;16.886;2024-03-29T06:09:28;1.75;;;1.15;;
6955;SDS011;50345;51.136;16.886;2024-03-29T06:11:56;3.17;;;1.20;;
6955;SDS011;50345;51.136;16.886;2024-03-29T06:14:25;1.38;;;1.10;;
6955;SDS011;50345;51.136;16.886;2024-03-29T06:17:10;1.65;;;1.52;;
6955;SDS011;50345;51.136;16.886;2024-03-29T06:19:47;1.20;;;1.00;;
6955;SDS011;50345;51.136;16.886;2024-03-29T06:22:17;1.30;;;1.20;;
6955;SDS011;50345;51.136;16.886;2024-03-29T06:24:43;2.00;;;1.10;;
6955;SDS011;50345;51.136;16.886;2024-03-29T06:27:09;1.00;;;0.90;;
6955;SDS011;50345;51.136;16.886;2024-03-29T06:29:35;1.13;;;1.02;;
6955;SDS011;50345;51.136;16.886;2024-03-29T06:32:00;2.00;;;0.90;;
6955;SDS011;50345;51.136;16.886;2024-03-29T06:34:28;1.70;;;0.90;;
6955;SDS011;50345;51.136;16.886;2024-03-29T06:36:57;1.50;;;1.05;;
6955;SDS011;50345;51.136;16.886;2024-03-29T06:39:22;2.10;;;1.53;;
6955;SDS011;50345;51.136;16.886;2024-03-29T06:41:49;2.10;;;1.05;;
6955;SDS011;50345;51.136;16.886;2024-03-29T06:44:15;1.23;;;0.80;;
6955;SDS011;50345;51.136;16.886;2024-03-29T06:46:40;1.10;;;0.90;;
6955;SDS011;50345;51.136;16.886;2024-03-29T06:49:06;4.27;;;1.00;;
6955;SDS011;50345;51.136;16.886;2024-03-29T06:51:31;1.47;;;0.77;;
6955;SDS011;50345;51.136;16.886;2024-03-29T06:53:57;1.83;;;1.20;;
6955;SDS011;50345;51.136;16.886;2024-03-29T06:56:22;1.20;;;0.97;;
6955;SDS011;50345;51.136;16.886;2024-03-29T06:58:48;1.73;;;0.80;;
6955;SDS011;50345;51.136;16.886;2024-03-29T07:01:14;1.10;;;1.00;;
6955;SDS011;50345;51.136;16.886;2024-03-29T07:03:40;1.23;;;0.90;;
6955;SDS011;50345;51.136;16.886;2024-03-29T07:06:05;1.27;;;1.02;;
6955;SDS011;50345;51.136;16.886;2024-03-29T07:08:31;1.40;;;1.00;;
6955;SDS011;50345;51.136;16.886;2024-03-29T07:11:00;2.00;;;0.97;;
6955;SDS011;50345;51.136;16.886;2024-03-29T07:13:28;1.15;;;0.90;;
6955;SDS011;50345;51.136;16.886;2024-03-29T07:15:55;1.77;;;1.20;;
6955;SDS011;50345;51.136;16.886;2024-03-29T07:18:20;0.90;;;0.80;;
6955;SDS011;50345;51.136;16.886;2024-03-29T07:20:46;1.30;;;1.10;;
6955;SDS011;50345;51.136;16.886;2024-03-29T07:23:11;1.33;;;0.93;;
6955;SDS011;50345;51.136;16.886;2024-03-29T07:25:38;1.40;;;0.95;;
6955;SDS011;50345;51.136;16.886;2024-03-29T07:28:03;0.90;;;0.80;;
6955;SDS011;50345;51.136;16.886;2024-03-29T07:30:29;1.20;;;1.10;;
6955;SDS011;50345;51.136;16.886;2024-03-29T07:32:54;1.57;;;1.10;;
6955;SDS011;50345;51.136;16.886;2024-03-29T07:35:20;1.30;;;1.00;;
6955;SDS011;50345;51.136;16.886;2024-03-29T07:37:46;3.27;;;1.33;;
6955;SDS011;50345;51.136;16.886;2024-03-29T07:40:14;2.17;;;1.20;;
6955;SDS011;50345;51.136;16.886;2024-03-29T07:42:40;1.70;;;1.10;;
6955;SDS011;50345;51.136;16.886;2024-03-29T07:45:05;1.60;;;1.00;;
6955;SDS011;50345;51.136;16.886;2024-03-29T07:47:32;2.13;;;0.90;;
6955;SDS011;50345;51.136;16.886;2024-03-29T07:49:57;1.97;;;0.97;;
6955;SDS011;50345;51.136;16.886;2024-03-29T07:52:23;0.97;;;0.90;;
6955;SDS011;50345;51.136;16.886;2024-03-29T07:54:48;1.10;;;0.80;;
6955;SDS011;50345;51.136;16.886;2024-03-29T07:57:14;1.37;;;0.80;;
6955;SDS011;50345;51.136;16.886;2024-03-29T07:59:41;1.85;;;0.93;;
6955;SDS011;50345;51.136;16.886;2024-03-29T08:02:06;1.33;;;0.80;;
6955;SDS011;50345;51.136;16.886;2024-03-29T08:04:32;2.10;;;1.00;;
6955;SDS011;50345;51.136;16.886;2024-03-29T08:06:58;2.30;;;0.90;;
6955;SDS011;50345;51.136;16.886;2024-03-29T08:09:23;1.20;;;1.00;;
6955;SDS011;50345;51.136;16.886;2024-03-29T08:11:49;0.80;;;0.80;;
6955;SDS011;50345;51.136;16.886;2024-03-29T08:14:15;1.02;;;1.00;;
6955;SDS011;50345;51.136;16.886;2024-03-29T08:16:40;1.63;;;0.77;;
6955;SDS011;50345;51.136;16.886;2024-03-29T08:19:07;2.33;;;1.05;;
6955;SDS011;50345;51.136;16.886;2024-03-29T08:21:33;1.03;;;0.83;;
6955;SDS011;50345;51.136;16.886;2024-03-29T08:23:58;1.00;;;0.80;;
6955;SDS011;50345;51.136;16.886;2024-03-29T08:26:25;1.20;;;1.00;;
6955;SDS011;50345;51.136;16.886;2024-03-29T08:28:53;1.60;;;1.10;;
6955;SDS011;50345;51.136;16.886;2024-03-29T08:31:19;0.97;;;0.80;;
6955;SDS011;50345;51.136;16.886;2024-03-29T08:33:44;2.33;;;0.87;;
6955;SDS011;50345;51.136;16.886;2024-03-29T08:36:10;2.13;;;0.77;;
6955;SDS011;50345;51.136;16.886;2024-03-29T08:38:37;5.95;;;0.90;;
6955;SDS011;50345;51.136;16.886;2024-03-29T08:41:06;1.00;;;0.90;;
6955;SDS011;50345;51.136;16.886;2024-03-29T08:43:32;2.00;;;0.90;;
6955;SDS011;50345;51.136;16.886;2024-03-29T08:45:58;1.63;;;1.03;;
6955;SDS011;50345;51.136;16.886;2024-03-29T08:48:24;0.80;;;0.80;;
6955;SDS011;50345;51.136;16.886;2024-03-29T08:50:50;2.10;;;0.95;;
6955;SDS011;50345;51.136;16.886;2024-03-29T08:53:15;2.60;;;0.83;;
6955;SDS011;50345;51.136;16.886;2024-03-29T08:55:41;1.40;;;1.20;;
6955;SDS011;50345;51.136;16.886;2024-03-29T08:58:07;1.43;;;1.33;;
6955;SDS011;50345;51.136;16.886;2024-03-29T09:00:32;0.80;;;0.70;;
6955;SDS011;50345;51.136;16.886;2024-03-29T09:02:58;0.97;;;0.70;;
6955;SDS011;50345;51.136;16.886;2024-03-29T09:05:30;1.47;;;0.70;;
6955;SDS011;50345;51.136;16.886;2024-03-29T09:07:56;2.47;;;1.00;;
6955;SDS011;50345;51.136;16.886;2024-03-29T09:10:22;1.23;;;0.73;;
6955;SDS011;50345;51.136;16.886;2024-03-29T09:12:49;1.97;;;0.80;;
6955;SDS011;50345;51.136;16.886;2024-03-29T09:15:15;2.47;;;0.80;;
6955;SDS011;50345;51.136;16.886;2024-03-29T09:17:44;3.50;;;2.33;;
6955;SDS011;50345;51.136;16.886;2024-03-29T09:20:11;1.30;;;1.00;;
6955;SDS011;50345;51.136;16.886;2024-03-29T09:22:37;0.80;;;0.70;;
6955;SDS011;50345;51.136;16.886;2024-03-29T09:25:03;2.07;;;0.90;;
6955;SDS011;50345;51.136;16.886;2024-03-29T09:27:30;0.97;;;0.80;;
6955;SDS011;50345;51.136;16.886;2024-03-29T09:29:58;1.00;;;0.90;;
6955;SDS011;50345;51.136;16.886;2024-03-29T09:32:24;1.73;;;1.00;;
6955;SDS011;50345;51.136;16.886;2024-03-29T09:34:49;1.47;;;0.90;;
6955;SDS011;50345;51.136;16.886;2024-03-29T09:37:15;3.97;;;0.83;;
6955;SDS011;50345;51.136;16.886;2024-03-29T09:39:42;1.00;;;0.90;;
6955;SDS011;50345;51.136;16.886;2024-03-29T09:42:08;1.03;;;0.90;;
6955;SDS011;50345;51.136;16.886;2024-03-29T09:44:39;1.23;;;0.90;;
6955;SDS011;50345;51.136;16.886;2024-03-29T09:47:04;1.30;;;0.90;;
6955;SDS011;50345;51.136;16.886;2024-03-29T09:49:32;0.97;;;0.60;;
6955;SDS011;50345;51.136;16.886;2024-03-29T09:51:58;4.40;;;0.90;;
6955;SDS011;50345;51.136;16.886;2024-03-29T09:54:26;1.67;;;0.80;;
6955;SDS011;50345;51.136;16.886;2024-03-29T09:56:53;0.80;;;0.70;;
6955;SDS011;50345;51.136;16.886;2024-03-29T09:59:23;2.50;;;1.03;;
6955;SDS011;50345;51.136;16.886;2024-03-29T10:01:49;4.13;;;0.77;;
6955;SDS011;50345;51.136;16.886;2024-03-29T10:04:17;1.00;;;0.80;;
6955;SDS011;50345;51.136;16.886;2024-03-29T10:06:46;0.90;;;0.70;;
6955;SDS011;50345;51.136;16.886;2024-03-29T10:09:14;1.10;;;0.70;;
6955;SDS011;50345;51.136;16.886;2024-03-29T10:11:43;1.20;;;1.00;;
6955;SDS011;50345;51.136;16.886;2024-03-29T10:14:10;0.70;;;0.60;;
6955;SDS011;50345;51.136;16.886;2024-03-29T10:16:35;0.80;;;0.70;;
6955;SDS011;50345;51.136;16.886;2024-03-29T10:19:01;0.80;;;0.80;;
6955;SDS011;50345;51.136;16.886;2024-03-29T10:21:27;1.80;;;0.90;;
6955;SDS011;50345;51.136;16.886;2024-03-29T10:23:53;1.40;;;0.90;;
6955;SDS011;50345;51.136;16.886;2024-03-29T10:26:19;0.70;;;0.70;;
6955;SDS011;50345;51.136;16.886;2024-03-29T10:28:46;0.73;;;0.70;;
6955;SDS011;50345;51.136;16.886;2024-03-29T10:31:12;1.17;;;0.87;;
6955;SDS011;50345;51.136;16.886;2024-03-29T10:33:41;1.40;;;0.90;;
6955;SDS011;50345;51.136;16.886;2024-03-29T10:36:09;1.30;;;0.80;;
6955;SDS011;50345;51.136;16.886;2024-03-29T10:38:37;0.87;;;0.87;;
6955;SDS011;50345;51.136;16.886;2024-03-29T10:41:03;1.77;;;0.83;;
6955;SDS011;50345;51.136;16.886;2024-03-29T10:43:31;0.80;;;0.80;;
6955;SDS011;50345;51.136;16.886;2024-03-29T10:45:57;0.90;;;0.70;;
6955;SDS011;50345;51.136;16.886;2024-03-29T10:48:28;2.10;;;0.80;;
6955;SDS011;50345;51.136;16.886;2024-03-29T10:50:56;0.63;;;0.60;;
6955;SDS011;50345;51.136;16.886;2024-03-29T10:53:24;0.83;;;0.80;;
6955;SDS011;50345;51.136;16.886;2024-03-29T10:55:53;3.07;;;1.10;;
6955;SDS011;50345;51.136;16.886;2024-03-29T10:58:21;0.90;;;0.70;;
6955;SDS011;50345;51.136;16.886;2024-03-29T11:00:51;0.90;;;0.80;;
6955;SDS011;50345;51.136;16.886;2024-03-29T11:06:09;2.13;;;1.40;;
6955;SDS011;50345;51.136;16.886;2024-03-29T11:08:38;1.20;;;0.90;;
6955;SDS011;50345;51.136;16.886;2024-03-29T11:11:10;1.47;;;0.80;;
6955;SDS011;50345;51.136;16.886;2024-03-29T11:13:39;1.93;;;1.00;;
6955;SDS011;50345;51.136;16.886;2024-03-29T11:16:21;1.50;;;1.00;;
6955;SDS011;50345;51.136;16.886;2024-03-29T11:18:48;1.23;;;0.73;;
6955;SDS011;50345;51.136;16.886;2024-03-29T11:21:15;1.17;;;0.87;;
6955;SDS011;50345;51.136;16.886;2024-03-29T11:23:52;1.00;;;0.90;;
6955;SDS011;50345;51.136;16.886;2024-03-29T11:26:18;1.10;;;0.90;;
6955;SDS011;50345;51.136;16.886;2024-03-29T11:28:52;1.00;;;0.90;;
6955;SDS011;50345;51.136;16.886;2024-03-29T11:31:21;1.43;;;0.70;;
6955;SDS011;50345;51.136;16.886;2024-03-29T11:33:48;1.17;;;0.90;;
6955;SDS011;50345;51.136;16.886;2024-03-29T11:36:23;1.07;;;0.90;;
6955;SDS011;50345;51.136;16.886;2024-03-29T11:38:51;1.50;;;0.90;;
6955;SDS011;50345;51.136;16.886;2024-03-29T11:41:18;1.13;;;0.80;;
6955;SDS011;50345;51.136;16.886;2024-03-29T11:43:48;0.80;;;0.70;;
6955;SDS011;50345;51.136;16.886;2024-03-29T11:46:14;1.07;;;0.90;;
6955;SDS011;50345;51.136;16.886;2024-03-29T11:48:43;3.90;;;0.80;;
6955;SDS011;50345;51.136;16.886;2024-03-29T11:51:11;0.70;;;0.70;;
6955;SDS011;50345;51.136;16.886;2024-03-29T11:53:40;0.80;;;0.80;;
6955;SDS011;50345;51.136;16.886;2024-03-29T11:56:09;1.13;;;0.93;;
6955;SDS011;50345;51.136;16.886;2024-03-29T11:58:36;1.57;;;1.27;;
6955;SDS011;50345;51.136;16.886;2024-03-29T12:01:02;3.60;;;2.43;;
6955;SDS011;50345;51.136;16.886;2024-03-29T12:03:29;1.53;;;1.37;;
6955;SDS011;50345;51.136;16.886;2024-03-29T12:05:56;1.43;;;1.00;;
6955;SDS011;50345;51.136;16.886;2024-03-29T12:08:24;1.20;;;1.10;;
6955;SDS011;50345;51.136;16.886;2024-03-29T12:10:51;2.20;;;1.30;;
6955;SDS011;50345;51.136;16.886;2024-03-29T12:13:17;0.97;;;0.90;;
6955;SDS011;50345;51.136;16.886;2024-03-29T12:15:43;1.23;;;0.77;;
6955;SDS011;50345;51.136;16.886;2024-03-29T12:18:09;3.63;;;0.80;;
6955;SDS011;50345;51.136;16.886;2024-03-29T12:20:36;1.10;;;1.00;;
6955;SDS011;50345;51.136;16.886;2024-03-29T12:23:03;1.10;;;0.70;;
6955;SDS011;50345;51.136;16.886;2024-03-29T12:25:30;1.00;;;0.90;;
6955;SDS011;50345;51.136;16.886;2024-03-29T12:27:57;1.43;;;0.90;;
6955;SDS011;50345;51.136;16.886;2024-03-29T12:30:23;1.60;;;0.70;;
6955;SDS011;50345;51.136;16.886;2024-03-29T12:35:28;1.20;;;0.70;;
6955;SDS011;50345;51.136;16.886;2024-03-29T12:38:00;1.77;;;1.43;;
6955;SDS011;50345;51.136;16.886;2024-03-29T12:40:28;1.63;;;0.90;;
6955;SDS011;50345;51.136;16.886;2024-03-29T12:42:57;0.73;;;0.70;;
6955;SDS011;50345;51.136;16.886;2024-03-29T12:45:23;0.83;;;0.73;;
6955;SDS011;50345;51.136;16.886;2024-03-29T12:47:50;0.93;;;0.80;;
6955;SDS011;50345;51.136;16.886;2024-03-29T12:50:19;1.40;;;0.83;;
6955;SDS011;50345;51.136;16.886;2024-03-29T12:52:54;1.07;;;0.80;;
6955;SDS011;50345;51.136;16.886;2024-03-29T12:55:21;1.57;;;0.90;;
6955;SDS011;50345;51.136;16.886;2024-03-29T12:57:47;0.80;;;0.80;;
6955;SDS011;50345;51.136;16.886;2024-03-29T13:00:13;2.37;;;0.93;;
6955;SDS011;50345;51.136;16.886;2024-03-29T13:02:39;1.60;;;0.90;;
6955;SDS011;50345;51.136;16.886;2024-03-29T13:05:05;0.80;;;0.80;;
6955;SDS011;50345;51.136;16.886;2024-03-29T13:07:31;2.40;;;1.10;;
6955;SDS011;50345;51.136;16.886;2024-03-29T13:09:57;1.50;;;1.00;;
6955;SDS011;50345;51.136;16.886;2024-03-29T13:12:35;1.60;;;1.00;;
6955;SDS011;50345;51.136;16.886;2024-03-29T13:15:03;0.70;;;0.70;;
6955;SDS011;50345;51.136;16.886;2024-03-29T13:17:39;2.40;;;0.90;;
6955;SDS011;50345;51.136;16.886;2024-03-29T13:20:05;0.80;;;0.60;;
6955;SDS011;50345;51.136;16.886;2024-03-29T13:22:31;1.00;;;0.90;;
6955;SDS011;50345;51.136;16.886;2024-03-29T13:24:56;1.67;;;0.97;;
6955;SDS011;50345;51.136;16.886;2024-03-29T13:27:22;1.93;;;0.93;;
6955;SDS011;50345;51.136;16.886;2024-03-29T13:29:47;1.67;;;0.80;;
6955;SDS011;50345;51.136;16.886;2024-03-29T13:32:14;1.00;;;0.90;;
6955;SDS011;50345;51.136;16.886;2024-03-29T13:34:39;1.60;;;0.80;;
6955;SDS011;50345;51.136;16.886;2024-03-29T13:37:05;2.47;;;1.00;;
6955;SDS011;50345;51.136;16.886;2024-03-29T13:39:31;1.10;;;0.80;;
6955;SDS011;50345;51.136;16.886;2024-03-29T13:41:57;0.70;;;0.70;;
6955;SDS011;50345;51.136;16.886;2024-03-29T13:44:23;1.13;;;0.90;;
6955;SDS011;50345;51.136;16.886;2024-03-29T13:46:49;1.47;;;0.80;;
6955;SDS011;50345;51.136;16.886;2024-03-29T13:49:16;1.53;;;0.90;;
6955;SDS011;50345;51.136;16.886;2024-03-29T13:51:45;2.07;;;0.90;;
6955;SDS011;50345;51.136;16.886;2024-03-29T13:54:11;1.30;;;0.90;;
6955;SDS011;50345;51.136;16.886;2024-03-29T13:56:37;1.33;;;0.83;;
6955;SDS011;50345;51.136;16.886;2024-03-29T13:59:02;0.70;;;0.70;;
6955;SDS011;50345;51.136;16.886;2024-03-29T14:01:28;1.10;;;1.00;;
6955;SDS011;50345;51.136;16.886;2024-03-29T14:03:54;1.40;;;1.33;;
6955;SDS011;50345;51.136;16.886;2024-03-29T14:06:20;1.20;;;0.73;;
6955;SDS011;50345;51.136;16.886;2024-03-29T14:08:46;1.87;;;1.30;;
6955;SDS011;50345;51.136;16.886;2024-03-29T14:11:11;1.23;;;0.80;;
6955;SDS011;50345;51.136;16.886;2024-03-29T14:13:39;0.80;;;0.80;;
6955;SDS011;50345;51.136;16.886;2024-03-29T14:16:04;0.97;;;0.83;;
6955;SDS011;50345;51.136;16.886;2024-03-29T14:18:30;1.30;;;0.97;;
6955;SDS011;50345;51.136;16.886;2024-03-29T14:20:56;1.20;;;0.90;;
6955;SDS011;50345;51.136;16.886;2024-03-29T14:23:22;0.80;;;0.73;;
6955;SDS011;50345;51.136;16.886;2024-03-29T14:25:50;0.83;;;0.83;;
6955;SDS011;50345;51.136;16.886;2024-03-29T14:28:16;1.60;;;1.10;;
6955;SDS011;50345;51.136;16.886;2024-03-29T14:30:41;1.20;;;1.00;;
6955;SDS011;50345;51.136;16.886;2024-03-29T14:33:07;1.17;;;0.83;;
6955;SDS011;50345;51.136;16.886;2024-03-29T14:35:34;1.43;;;0.90;;
6955;SDS011;50345;51.136;16.886;2024-03-29T14:38:00;1.30;;;1.20;;
6955;SDS011;50345;51.136;16.886;2024-03-29T14:40:26;1.10;;;1.00;;
6955;SDS011;50345;51.136;16.886;2024-03-29T14:42:52;0.80;;;0.70;;
6955;SDS011;50345;51.136;16.886;2024-03-29T14:45:19;1.10;;;0.90;;
6955;SDS011;50345;51.136;16.886;2024-03-29T14:47:45;1.80;;;0.93;;
6955;SDS011;50345;51.136;16.886;2024-03-29T14:50:11;1.93;;;1.00;;